YMNG weather

Mangalore Airport
Victoria, Australia

Public forecast

Using degrees Celsius for public forecast. Weather courtesy of forecast.io.

Closest aviation weather report (METAR) to Mangalore Airport

Closest report is Melbourne International Airport, 49.9 nm (92.4 km) SSW. Retrieved 2019/10/20 22:30 UTC (29 minutes ago):

YMML 202230Z 17004KT 9999 FEW010 SCT012 BKN015 11/07 Q1029 FM2300 24010KT 9999 BKN020 TEMPO 2230/2330 9999 BKN015

Closest aviation forecast (TAF) to Mangalore Airport

Forecast is more than 6 hours old.

Closest forecast is Melbourne International Airport, 49.9 nm (92.4 km) SSW. Retrieved 2019/10/20 12:38 UTC (10 hours ago):

TAF YMML 201132Z 2012/2118 24010KT 9999 BKN025 BECMG 2023/2024 17014KT CAVOK FM211000 19006KT 9999 BKN012 TEMPO 2014/2018 9999 BKN015 TEMPO 2018/2022 9999 BKN010 TEMPO 2116/2118 9999 BKN009